sensor_id;sensor_type;location;lat;lon;timestamp;temperature;humidity
12229;DHT22;6177;52.402;9.800;2022-09-11T00:02:24;15.40;92.20
12229;DHT22;6177;52.402;9.800;2022-09-11T00:05:08;15.40;92.30
12229;DHT22;6177;52.402;9.800;2022-09-11T00:07:53;15.30;92.30
12229;DHT22;6177;52.402;9.800;2022-09-11T00:10:40;15.30;92.30
12229;DHT22;6177;52.402;9.800;2022-09-11T00:13:25;15.30;92.40
12229;DHT22;6177;52.402;9.800;2022-09-11T00:16:17;15.20;92.50
12229;DHT22;6177;52.402;9.800;2022-09-11T00:19:03;15.20;92.50
12229;DHT22;6177;52.402;9.800;2022-09-11T00:21:48;15.10;92.60
12229;DHT22;6177;52.402;9.800;2022-09-11T00:24:34;15.10;92.70
12229;DHT22;6177;52.402;9.800;2022-09-11T00:27:18;15.10;92.80
12229;DHT22;6177;52.402;9.800;2022-09-11T00:30:02;15.00;92.80
12229;DHT22;6177;52.402;9.800;2022-09-11T00:32:47;15.00;92.90
12229;DHT22;6177;52.402;9.800;2022-09-11T00:35:33;15.00;93.00
12229;DHT22;6177;52.402;9.800;2022-09-11T00:38:17;15.00;93.00
12229;DHT22;6177;52.402;9.800;2022-09-11T00:41:03;15.00;93.10
12229;DHT22;6177;52.402;9.800;2022-09-11T00:43:55;15.00;93.20
12229;DHT22;6177;52.402;9.800;2022-09-11T00:46:59;15.10;93.30
12229;DHT22;6177;52.402;9.800;2022-09-11T00:49:45;15.00;93.40
12229;DHT22;6177;52.402;9.800;2022-09-11T00:52:35;15.00;93.50
12229;DHT22;6177;52.402;9.800;2022-09-11T00:55:25;15.00;93.60
12229;DHT22;6177;52.402;9.800;2022-09-11T00:58:11;15.00;93.90
12229;DHT22;6177;52.402;9.800;2022-09-11T01:00:58;15.00;93.80
12229;DHT22;6177;52.402;9.800;2022-09-11T01:03:44;15.00;93.80
12229;DHT22;6177;52.402;9.800;2022-09-11T01:06:28;15.00;93.90
12229;DHT22;6177;52.402;9.800;2022-09-11T01:09:14;15.00;94.00
12229;DHT22;6177;52.402;9.800;2022-09-11T01:15:05;15.10;94.00
12229;DHT22;6177;52.402;9.800;2022-09-11T01:20:55;15.00;94.00
12229;DHT22;6177;52.402;9.800;2022-09-11T01:26:46;15.10;94.10
12229;DHT22;6177;52.402;9.800;2022-09-11T01:29:43;15.10;94.10
12229;DHT22;6177;52.402;9.800;2022-09-11T01:33:14;15.10;94.00
12229;DHT22;6177;52.402;9.800;2022-09-11T01:41:34;15.10;94.20
12229;DHT22;6177;52.402;9.800;2022-09-11T01:44:22;15.10;94.20
12229;DHT22;6177;52.402;9.800;2022-09-11T01:47:08;15.10;94.30
12229;DHT22;6177;52.402;9.800;2022-09-11T01:50:05;15.20;94.20
12229;DHT22;6177;52.402;9.800;2022-09-11T01:52:54;15.20;94.10
12229;DHT22;6177;52.402;9.800;2022-09-11T01:55:42;15.30;93.90
12229;DHT22;6177;52.402;9.800;2022-09-11T01:58:28;15.40;93.70
12229;DHT22;6177;52.402;9.800;2022-09-11T02:01:17;15.40;93.80
12229;DHT22;6177;52.402;9.800;2022-09-11T02:04:13;15.50;93.80
12229;DHT22;6177;52.402;9.800;2022-09-11T02:07:05;15.50;93.70
12229;DHT22;6177;52.402;9.800;2022-09-11T02:09:55;15.50;93.60
12229;DHT22;6177;52.402;9.800;2022-09-11T02:16:03;15.60;93.40
12229;DHT22;6177;52.402;9.800;2022-09-11T02:19:02;15.60;93.30
12229;DHT22;6177;52.402;9.800;2022-09-11T02:21:47;15.60;93.30
12229;DHT22;6177;52.402;9.800;2022-09-11T02:24:33;15.60;93.20
12229;DHT22;6177;52.402;9.800;2022-09-11T02:27:25;15.50;93.30
12229;DHT22;6177;52.402;9.800;2022-09-11T02:30:10;15.60;93.40
12229;DHT22;6177;52.402;9.800;2022-09-11T02:32:55;15.60;93.30
12229;DHT22;6177;52.402;9.800;2022-09-11T02:35:42;15.60;93.30
12229;DHT22;6177;52.402;9.800;2022-09-11T02:38:31;15.60;93.40
12229;DHT22;6177;52.402;9.800;2022-09-11T02:41:21;15.50;93.50
12229;DHT22;6177;52.402;9.800;2022-09-11T02:44:13;15.60;93.50
12229;DHT22;6177;52.402;9.800;2022-09-11T02:50:14;15.60;93.40
12229;DHT22;6177;52.402;9.800;2022-09-11T02:53:04;15.60;93.30
12229;DHT22;6177;52.402;9.800;2022-09-11T02:56:06;15.60;93.10
12229;DHT22;6177;52.402;9.800;2022-09-11T02:58:55;15.50;93.20
12229;DHT22;6177;52.402;9.800;2022-09-11T03:01:50;15.50;93.40
12229;DHT22;6177;52.402;9.800;2022-09-11T03:04:38;15.50;93.50
12229;DHT22;6177;52.402;9.800;2022-09-11T03:07:22;15.50;93.30
12229;DHT22;6177;52.402;9.800;2022-09-11T03:10:10;15.40;93.40
12229;DHT22;6177;52.402;9.800;2022-09-11T03:12:55;15.30;93.40
12229;DHT22;6177;52.402;9.800;2022-09-11T03:15:42;15.30;93.50
12229;DHT22;6177;52.402;9.800;2022-09-11T03:18:27;15.30;93.70
12229;DHT22;6177;52.402;9.800;2022-09-11T03:21:11;15.20;93.80
12229;DHT22;6177;52.402;9.800;2022-09-11T03:23:55;15.30;93.90
12229;DHT22;6177;52.402;9.800;2022-09-11T03:26:41;15.30;93.90
12229;DHT22;6177;52.402;9.800;2022-09-11T03:29:27;15.30;93.80
12229;DHT22;6177;52.402;9.800;2022-09-11T03:32:14;15.30;93.70
12229;DHT22;6177;52.402;9.800;2022-09-11T03:34:59;15.20;93.80
12229;DHT22;6177;52.402;9.800;2022-09-11T03:37:44;15.20;94.00
12229;DHT22;6177;52.402;9.800;2022-09-11T03:40:30;15.20;93.90
12229;DHT22;6177;52.402;9.800;2022-09-11T03:43:15;15.10;93.90
12229;DHT22;6177;52.402;9.800;2022-09-11T03:45:59;15.10;94.10
12229;DHT22;6177;52.402;9.800;2022-09-11T03:48:44;15.10;94.10
12229;DHT22;6177;52.402;9.800;2022-09-11T03:51:31;15.10;94.30
12229;DHT22;6177;52.402;9.800;2022-09-11T03:54:16;15.10;94.30
12229;DHT22;6177;52.402;9.800;2022-09-11T03:57:02;15.00;94.40
12229;DHT22;6177;52.402;9.800;2022-09-11T03:59:48;15.10;94.40
12229;DHT22;6177;52.402;9.800;2022-09-11T04:02:35;15.10;94.30
12229;DHT22;6177;52.402;9.800;2022-09-11T04:05:20;15.10;94.20
12229;DHT22;6177;52.402;9.800;2022-09-11T04:08:09;15.10;94.40
12229;DHT22;6177;52.402;9.800;2022-09-11T04:10:55;15.10;94.30
12229;DHT22;6177;52.402;9.800;2022-09-11T04:13:40;15.20;94.10
12229;DHT22;6177;52.402;9.800;2022-09-11T04:16:27;15.10;94.10
12229;DHT22;6177;52.402;9.800;2022-09-11T04:19:16;15.10;94.30
12229;DHT22;6177;52.402;9.800;2022-09-11T04:22:02;15.10;94.40
12229;DHT22;6177;52.402;9.800;2022-09-11T04:24:49;15.10;94.40
12229;DHT22;6177;52.402;9.800;2022-09-11T04:27:34;15.10;94.50
12229;DHT22;6177;52.402;9.800;2022-09-11T04:30:20;15.10;94.50
12229;DHT22;6177;52.402;9.800;2022-09-11T04:33:07;15.10;94.50
12229;DHT22;6177;52.402;9.800;2022-09-11T04:35:52;15.10;94.50
12229;DHT22;6177;52.402;9.800;2022-09-11T04:38:37;15.10;94.70
12229;DHT22;6177;52.402;9.800;2022-09-11T04:41:23;15.10;94.60
12229;DHT22;6177;52.402;9.800;2022-09-11T04:44:08;15.10;94.50
12229;DHT22;6177;52.402;9.800;2022-09-11T04:46:58;15.10;94.60
12229;DHT22;6177;52.402;9.800;2022-09-11T04:49:43;15.10;94.70
12229;DHT22;6177;52.402;9.800;2022-09-11T04:52:30;15.10;94.90
12229;DHT22;6177;52.402;9.800;2022-09-11T04:55:15;15.10;94.80
12229;DHT22;6177;52.402;9.800;2022-09-11T04:57:59;15.10;94.60
12229;DHT22;6177;52.402;9.800;2022-09-11T05:00:44;15.10;94.50
12229;DHT22;6177;52.402;9.800;2022-09-11T05:03:29;15.10;94.50
12229;DHT22;6177;52.402;9.800;2022-09-11T05:06:15;15.10;94.50
12229;DHT22;6177;52.402;9.800;2022-09-11T05:09:01;15.20;94.30
12229;DHT22;6177;52.402;9.800;2022-09-11T05:11:47;15.20;94.10
12229;DHT22;6177;52.402;9.800;2022-09-11T05:14:33;15.20;93.90
12229;DHT22;6177;52.402;9.800;2022-09-11T05:17:20;15.20;93.90
12229;DHT22;6177;52.402;9.800;2022-09-11T05:20:05;15.10;94.00
12229;DHT22;6177;52.402;9.800;2022-09-11T05:22:50;15.20;93.90
12229;DHT22;6177;52.402;9.800;2022-09-11T05:25:37;15.20;94.10
12229;DHT22;6177;52.402;9.800;2022-09-11T05:28:22;15.10;94.20
12229;DHT22;6177;52.402;9.800;2022-09-11T05:31:12;15.10;94.30
12229;DHT22;6177;52.402;9.800;2022-09-11T05:33:57;15.20;94.30
12229;DHT22;6177;52.402;9.800;2022-09-11T05:36:43;15.20;94.40
12229;DHT22;6177;52.402;9.800;2022-09-11T05:39:29;15.20;94.50
12229;DHT22;6177;52.402;9.800;2022-09-11T05:42:14;15.20;94.50
12229;DHT22;6177;52.402;9.800;2022-09-11T05:45:03;15.30;94.40
12229;DHT22;6177;52.402;9.800;2022-09-11T05:47:48;15.30;94.10
12229;DHT22;6177;52.402;9.800;2022-09-11T05:50:33;15.30;94.00
12229;DHT22;6177;52.402;9.800;2022-09-11T05:53:18;15.30;94.10
12229;DHT22;6177;52.402;9.800;2022-09-11T05:56:05;15.30;94.00
12229;DHT22;6177;52.402;9.800;2022-09-11T05:58:49;15.30;94.00
12229;DHT22;6177;52.402;9.800;2022-09-11T06:01:41;15.30;94.00
12229;DHT22;6177;52.402;9.800;2022-09-11T06:04:34;15.30;93.90
12229;DHT22;6177;52.402;9.800;2022-09-11T06:07:19;15.30;93.90
12229;DHT22;6177;52.402;9.800;2022-09-11T06:10:06;15.20;94.00
12229;DHT22;6177;52.402;9.800;2022-09-11T06:12:51;15.30;94.10
12229;DHT22;6177;52.402;9.800;2022-09-11T06:15:35;15.30;94.20
12229;DHT22;6177;52.402;9.800;2022-09-11T06:18:20;15.40;93.90
12229;DHT22;6177;52.402;9.800;2022-09-11T06:21:07;15.40;93.90
12229;DHT22;6177;52.402;9.800;2022-09-11T06:24:00;15.40;93.90
12229;DHT22;6177;52.402;9.800;2022-09-11T06:26:45;15.40;93.80
12229;DHT22;6177;52.402;9.800;2022-09-11T06:29:31;15.40;93.80
12229;DHT22;6177;52.402;9.800;2022-09-11T06:32:17;15.40;93.80
12229;DHT22;6177;52.402;9.800;2022-09-11T06:35:04;15.50;93.60
12229;DHT22;6177;52.402;9.800;2022-09-11T06:37:48;15.60;93.50
12229;DHT22;6177;52.402;9.800;2022-09-11T06:40:35;15.60;93.60
12229;DHT22;6177;52.402;9.800;2022-09-11T06:43:19;15.70;93.60
12229;DHT22;6177;52.402;9.800;2022-09-11T06:46:09;15.80;93.40
12229;DHT22;6177;52.402;9.800;2022-09-11T06:48:55;15.80;93.40
12229;DHT22;6177;52.402;9.800;2022-09-11T06:51:43;16.00;93.30
12229;DHT22;6177;52.402;9.800;2022-09-11T06:54:28;16.10;93.10
12229;DHT22;6177;52.402;9.800;2022-09-11T06:57:14;16.20;92.60
12229;DHT22;6177;52.402;9.800;2022-09-11T06:59:59;16.20;92.40
12229;DHT22;6177;52.402;9.800;2022-09-11T07:02:44;16.30;92.30
12229;DHT22;6177;52.402;9.800;2022-09-11T07:05:29;16.40;92.00
12229;DHT22;6177;52.402;9.800;2022-09-11T07:08:16;16.40;92.00
12229;DHT22;6177;52.402;9.800;2022-09-11T07:11:05;16.40;91.70
12229;DHT22;6177;52.402;9.800;2022-09-11T07:13:52;16.50;91.30
12229;DHT22;6177;52.402;9.800;2022-09-11T07:16:37;16.50;91.30
12229;DHT22;6177;52.402;9.800;2022-09-11T07:19:26;16.60;91.10
12229;DHT22;6177;52.402;9.800;2022-09-11T07:22:11;16.60;90.70
12229;DHT22;6177;52.402;9.800;2022-09-11T07:24:58;16.60;90.50
12229;DHT22;6177;52.402;9.800;2022-09-11T07:27:44;16.70;90.40
12229;DHT22;6177;52.402;9.800;2022-09-11T07:30:29;16.80;90.20
12229;DHT22;6177;52.402;9.800;2022-09-11T07:33:14;16.80;90.30
12229;DHT22;6177;52.402;9.800;2022-09-11T07:35:59;17.00;90.10
12229;DHT22;6177;52.402;9.800;2022-09-11T07:38:44;17.00;89.80
12229;DHT22;6177;52.402;9.800;2022-09-11T07:41:31;17.10;89.40
12229;DHT22;6177;52.402;9.800;2022-09-11T07:44:20;17.10;89.60
12229;DHT22;6177;52.402;9.800;2022-09-11T07:47:06;17.30;89.50
12229;DHT22;6177;52.402;9.800;2022-09-11T07:49:57;17.40;88.10
12229;DHT22;6177;52.402;9.800;2022-09-11T07:52:42;17.40;87.90
12229;DHT22;6177;52.402;9.800;2022-09-11T07:55:27;17.50;88.00
12229;DHT22;6177;52.402;9.800;2022-09-11T07:58:12;17.50;87.70
12229;DHT22;6177;52.402;9.800;2022-09-11T08:00:57;17.60;87.60
12229;DHT22;6177;52.402;9.800;2022-09-11T08:03:42;17.70;87.30
12229;DHT22;6177;52.402;9.800;2022-09-11T08:06:28;17.80;85.80
12229;DHT22;6177;52.402;9.800;2022-09-11T08:09:15;17.70;85.20
12229;DHT22;6177;52.402;9.800;2022-09-11T08:12:05;17.70;85.60
12229;DHT22;6177;52.402;9.800;2022-09-11T08:14:53;17.90;85.60
12229;DHT22;6177;52.402;9.800;2022-09-11T08:17:39;18.00;84.90
12229;DHT22;6177;52.402;9.800;2022-09-11T08:20:23;18.10;83.50
12229;DHT22;6177;52.402;9.800;2022-09-11T08:23:07;18.10;83.20
12229;DHT22;6177;52.402;9.800;2022-09-11T08:25:53;18.20;82.60
12229;DHT22;6177;52.402;9.800;2022-09-11T08:28:41;18.30;82.70
12229;DHT22;6177;52.402;9.800;2022-09-11T08:31:28;18.50;82.40
12229;DHT22;6177;52.402;9.800;2022-09-11T08:34:15;18.70;81.30
12229;DHT22;6177;52.402;9.800;2022-09-11T08:37:01;18.70;80.90
12229;DHT22;6177;52.402;9.800;2022-09-11T08:39:50;19.00;80.40
12229;DHT22;6177;52.402;9.800;2022-09-11T08:42:35;19.20;79.70
12229;DHT22;6177;52.402;9.800;2022-09-11T08:45:21;19.40;78.60
12229;DHT22;6177;52.402;9.800;2022-09-11T08:48:09;19.60;77.70
12229;DHT22;6177;52.402;9.800;2022-09-11T08:50:57;19.80;76.60
12229;DHT22;6177;52.402;9.800;2022-09-11T08:53:41;19.90;76.10
12229;DHT22;6177;52.402;9.800;2022-09-11T08:56:29;19.90;75.60
12229;DHT22;6177;52.402;9.800;2022-09-11T08:59:21;19.80;75.10
12229;DHT22;6177;52.402;9.800;2022-09-11T09:02:26;19.80;75.20
12229;DHT22;6177;52.402;9.800;2022-09-11T09:10:56;19.60;75.70
12229;DHT22;6177;52.402;9.800;2022-09-11T09:19:18;19.30;76.00
12229;DHT22;6177;52.402;9.800;2022-09-11T09:22:21;19.30;76.20
12229;DHT22;6177;52.402;9.800;2022-09-11T09:25:10;19.30;76.20
12229;DHT22;6177;52.402;9.800;2022-09-11T09:27:57;19.40;76.00
12229;DHT22;6177;52.402;9.800;2022-09-11T09:30:55;19.40;75.80
12229;DHT22;6177;52.402;9.800;2022-09-11T09:36:57;19.60;75.60
12229;DHT22;6177;52.402;9.800;2022-09-11T09:39:43;19.80;74.70
12229;DHT22;6177;52.402;9.800;2022-09-11T09:42:51;19.90;74.20
12229;DHT22;6177;52.402;9.800;2022-09-11T09:45:46;20.00;73.60
12229;DHT22;6177;52.402;9.800;2022-09-11T09:48:33;20.10;73.60
12229;DHT22;6177;52.402;9.800;2022-09-11T09:51:19;20.10;73.50
12229;DHT22;6177;52.402;9.800;2022-09-11T09:54:03;20.10;73.40
12229;DHT22;6177;52.402;9.800;2022-09-11T09:56:51;20.00;72.70
12229;DHT22;6177;52.402;9.800;2022-09-11T09:59:40;19.80;73.00
12229;DHT22;6177;52.402;9.800;2022-09-11T10:05:32;19.70;73.30
12229;DHT22;6177;52.402;9.800;2022-09-11T10:11:10;19.60;74.00
12229;DHT22;6177;52.402;9.800;2022-09-11T10:13:55;19.70;74.50
12229;DHT22;6177;52.402;9.800;2022-09-11T10:16:40;19.80;74.10
12229;DHT22;6177;52.402;9.800;2022-09-11T10:19:37;19.90;73.60
12229;DHT22;6177;52.402;9.800;2022-09-11T10:25:14;20.30;72.40
12229;DHT22;6177;52.402;9.800;2022-09-11T10:28:11;20.60;72.00
12229;DHT22;6177;52.402;9.800;2022-09-11T10:30:58;21.00;71.30
12229;DHT22;6177;52.402;9.800;2022-09-11T10:33:51;21.10;70.40
12229;DHT22;6177;52.402;9.800;2022-09-11T10:36:38;21.10;70.10
12229;DHT22;6177;52.402;9.800;2022-09-11T10:39:23;21.10;69.90
12229;DHT22;6177;52.402;9.800;2022-09-11T10:42:14;21.00;69.30
12229;DHT22;6177;52.402;9.800;2022-09-11T10:45:33;20.80;70.00
12229;DHT22;6177;52.402;9.800;2022-09-11T10:48:14;20.70;70.40
12229;DHT22;6177;52.402;9.800;2022-09-11T10:51:03;20.60;71.00
12229;DHT22;6177;52.402;9.800;2022-09-11T10:54:36;20.70;71.00
12229;DHT22;6177;52.402;9.800;2022-09-11T11:02:57;20.50;71.50
12229;DHT22;6177;52.402;9.800;2022-09-11T11:26:21;20.90;70.60
12229;DHT22;6177;52.402;9.800;2022-09-11T11:31:53;21.70;69.80
12229;DHT22;6177;52.402;9.800;2022-09-11T11:37:45;22.30;67.60
12229;DHT22;6177;52.402;9.800;2022-09-11T11:40:31;22.20;67.60
12229;DHT22;6177;52.402;9.800;2022-09-11T11:43:19;22.30;67.10
12229;DHT22;6177;52.402;9.800;2022-09-11T11:49:00;22.50;67.20
12229;DHT22;6177;52.402;9.800;2022-09-11T11:51:48;22.60;67.00
12229;DHT22;6177;52.402;9.800;2022-09-11T11:54:36;22.50;66.90
12229;DHT22;6177;52.402;9.800;2022-09-11T11:57:24;22.40;66.30
12229;DHT22;6177;52.402;9.800;2022-09-11T12:00:12;22.20;67.20
12229;DHT22;6177;52.402;9.800;2022-09-11T12:03:00;22.00;67.10
12229;DHT22;6177;52.402;9.800;2022-09-11T12:05:47;21.80;67.20
12229;DHT22;6177;52.402;9.800;2022-09-11T12:08:31;21.60;67.40
12229;DHT22;6177;52.402;9.800;2022-09-11T12:11:15;21.40;67.40
12229;DHT22;6177;52.402;9.800;2022-09-11T12:14:02;21.20;67.90
12229;DHT22;6177;52.402;9.800;2022-09-11T12:16:47;21.30;67.70
12229;DHT22;6177;52.402;9.800;2022-09-11T12:19:32;21.50;67.00
12229;DHT22;6177;52.402;9.800;2022-09-11T12:22:17;22.40;65.70
12229;DHT22;6177;52.402;9.800;2022-09-11T12:30:58;23.80;61.40
12229;DHT22;6177;52.402;9.800;2022-09-11T12:36:34;25.30;57.80
12229;DHT22;6177;52.402;9.800;2022-09-11T12:39:28;25.30;53.90
12229;DHT22;6177;52.402;9.800;2022-09-11T12:48:16;26.50;49.80
12229;DHT22;6177;52.402;9.800;2022-09-11T12:51:01;26.90;46.50
12229;DHT22;6177;52.402;9.800;2022-09-11T12:53:47;26.90;46.50
12229;DHT22;6177;52.402;9.800;2022-09-11T12:56:33;27.40;46.50
12229;DHT22;6177;52.402;9.800;2022-09-11T12:59:22;27.20;45.50
12229;DHT22;6177;52.402;9.800;2022-09-11T13:02:28;26.40;46.90
12229;DHT22;6177;52.402;9.800;2022-09-11T13:05:27;25.70;48.90
12229;DHT22;6177;52.402;9.800;2022-09-11T13:08:18;24.70;50.30
12229;DHT22;6177;52.402;9.800;2022-09-11T13:17:12;24.50;54.40
12229;DHT22;6177;52.402;9.800;2022-09-11T13:22:48;27.10;46.10
12229;DHT22;6177;52.402;9.800;2022-09-11T13:25:33;27.40;45.70
12229;DHT22;6177;52.402;9.800;2022-09-11T13:28:23;26.80;46.10
12229;DHT22;6177;52.402;9.800;2022-09-11T13:31:13;26.40;46.40
12229;DHT22;6177;52.402;9.800;2022-09-11T13:34:00;27.30;46.40
12229;DHT22;6177;52.402;9.800;2022-09-11T13:36:46;28.10;44.40
12229;DHT22;6177;52.402;9.800;2022-09-11T13:39:32;28.70;43.20
12229;DHT22;6177;52.402;9.800;2022-09-11T13:42:18;29.40;42.90
12229;DHT22;6177;52.402;9.800;2022-09-11T13:45:04;29.50;41.50
12229;DHT22;6177;52.402;9.800;2022-09-11T13:47:49;30.20;41.50
12229;DHT22;6177;52.402;9.800;2022-09-11T13:50:36;30.40;39.50
12229;DHT22;6177;52.402;9.800;2022-09-11T13:53:20;30.20;38.60
12229;DHT22;6177;52.402;9.800;2022-09-11T13:56:14;29.30;37.90
12229;DHT22;6177;52.402;9.800;2022-09-11T13:58:59;28.60;39.70
12229;DHT22;6177;52.402;9.800;2022-09-11T14:01:50;28.10;39.90
12229;DHT22;6177;52.402;9.800;2022-09-11T14:04:37;28.10;41.60
12229;DHT22;6177;52.402;9.800;2022-09-11T14:07:24;28.80;41.30
12229;DHT22;6177;52.402;9.800;2022-09-11T14:10:20;29.70;40.00
12229;DHT22;6177;52.402;9.800;2022-09-11T14:13:13;30.20;38.60
12229;DHT22;6177;52.402;9.800;2022-09-11T14:21:30;31.50;36.70
12229;DHT22;6177;52.402;9.800;2022-09-11T14:33:23;31.30;35.10
12229;DHT22;6177;52.402;9.800;2022-09-11T14:36:16;31.40;35.10
12229;DHT22;6177;52.402;9.800;2022-09-11T14:39:02;31.50;34.90
12229;DHT22;6177;52.402;9.800;2022-09-11T14:41:46;31.10;34.80
12229;DHT22;6177;52.402;9.800;2022-09-11T14:44:30;31.20;35.10
12229;DHT22;6177;52.402;9.800;2022-09-11T14:47:21;30.90;35.00
12229;DHT22;6177;52.402;9.800;2022-09-11T14:50:06;30.70;34.90
12229;DHT22;6177;52.402;9.800;2022-09-11T14:52:55;29.90;35.70
12229;DHT22;6177;52.402;9.800;2022-09-11T14:55:39;29.50;37.10
12229;DHT22;6177;52.402;9.800;2022-09-11T14:58:27;29.10;37.80
12229;DHT22;6177;52.402;9.800;2022-09-11T15:01:12;28.50;38.40
12229;DHT22;6177;52.402;9.800;2022-09-11T15:03:57;28.70;38.40
12229;DHT22;6177;52.402;9.800;2022-09-11T15:06:42;29.50;37.90
12229;DHT22;6177;52.402;9.800;2022-09-11T15:09:27;30.50;37.40
12229;DHT22;6177;52.402;9.800;2022-09-11T15:12:13;31.30;35.20
12229;DHT22;6177;52.402;9.800;2022-09-11T15:14:59;32.00;34.20
12229;DHT22;6177;52.402;9.800;2022-09-11T15:17:44;32.70;33.40
12229;DHT22;6177;52.402;9.800;2022-09-11T15:20:29;33.20;32.50
12229;DHT22;6177;52.402;9.800;2022-09-11T15:23:13;33.60;31.80
12229;DHT22;6177;52.402;9.800;2022-09-11T15:26:00;33.10;32.10
12229;DHT22;6177;52.402;9.800;2022-09-11T15:28:46;33.40;32.50
12229;DHT22;6177;52.402;9.800;2022-09-11T15:31:34;33.50;31.30
12229;DHT22;6177;52.402;9.800;2022-09-11T15:34:20;33.10;31.60
12229;DHT22;6177;52.402;9.800;2022-09-11T15:37:05;32.90;31.70
12229;DHT22;6177;52.402;9.800;2022-09-11T15:39:50;32.50;31.40
12229;DHT22;6177;52.402;9.800;2022-09-11T15:42:35;32.40;30.90
12229;DHT22;6177;52.402;9.800;2022-09-11T15:45:19;32.60;31.20
12229;DHT22;6177;52.402;9.800;2022-09-11T15:48:04;32.10;30.50
12229;DHT22;6177;52.402;9.800;2022-09-11T15:50:59;31.00;32.00
12229;DHT22;6177;52.402;9.800;2022-09-11T15:53:45;29.90;33.50
12229;DHT22;6177;52.402;9.800;2022-09-11T15:56:29;28.80;34.90
12229;DHT22;6177;52.402;9.800;2022-09-11T15:59:15;28.00;37.20
12229;DHT22;6177;52.402;9.800;2022-09-11T16:02:00;27.40;37.10
12229;DHT22;6177;52.402;9.800;2022-09-11T16:04:44;26.90;37.90
12229;DHT22;6177;52.402;9.800;2022-09-11T16:07:30;26.50;38.40
12229;DHT22;6177;52.402;9.800;2022-09-11T16:10:14;26.10;39.30
12229;DHT22;6177;52.402;9.800;2022-09-11T16:12:59;25.80;39.90
12229;DHT22;6177;52.402;9.800;2022-09-11T16:15:44;25.60;41.00
12229;DHT22;6177;52.402;9.800;2022-09-11T16:18:29;25.50;40.90
12229;DHT22;6177;52.402;9.800;2022-09-11T16:21:15;25.30;41.50
12229;DHT22;6177;52.402;9.800;2022-09-11T16:24:00;25.00;42.30
12229;DHT22;6177;52.402;9.800;2022-09-11T16:26:49;24.90;44.30
12229;DHT22;6177;52.402;9.800;2022-09-11T16:29:33;24.60;46.70
12229;DHT22;6177;52.402;9.800;2022-09-11T16:32:18;24.30;48.50
12229;DHT22;6177;52.402;9.800;2022-09-11T16:35:11;24.00;49.90
12229;DHT22;6177;52.402;9.800;2022-09-11T16:37:57;23.80;51.30
12229;DHT22;6177;52.402;9.800;2022-09-11T16:40:42;23.60;52.40
12229;DHT22;6177;52.402;9.800;2022-09-11T16:43:26;23.40;53.20
12229;DHT22;6177;52.402;9.800;2022-09-11T16:46:17;23.20;53.70
12229;DHT22;6177;52.402;9.800;2022-09-11T16:49:02;23.20;54.20
12229;DHT22;6177;52.402;9.800;2022-09-11T16:51:46;23.00;55.60
12229;DHT22;6177;52.402;9.800;2022-09-11T16:54:31;22.70;55.30
12229;DHT22;6177;52.402;9.800;2022-09-11T16:57:16;22.60;57.00
12229;DHT22;6177;52.402;9.800;2022-09-11T17:00:00;22.50;56.30
12229;DHT22;6177;52.402;9.800;2022-09-11T17:02:45;22.30;56.90
12229;DHT22;6177;52.402;9.800;2022-09-11T17:05:30;22.20;57.70
12229;DHT22;6177;52.402;9.800;2022-09-11T17:08:16;22.10;58.90
12229;DHT22;6177;52.402;9.800;2022-09-11T17:11:01;22.00;59.90
12229;DHT22;6177;52.402;9.800;2022-09-11T17:13:46;21.80;60.30
12229;DHT22;6177;52.402;9.800;2022-09-11T17:16:32;21.70;60.70
12229;DHT22;6177;52.402;9.800;2022-09-11T17:19:18;21.60;61.10
12229;DHT22;6177;52.402;9.800;2022-09-11T17:22:03;21.50;61.50
12229;DHT22;6177;52.402;9.800;2022-09-11T17:24:47;21.20;61.90
12229;DHT22;6177;52.402;9.800;2022-09-11T17:27:32;21.10;62.50
12229;DHT22;6177;52.402;9.800;2022-09-11T17:30:19;21.00;62.90
12229;DHT22;6177;52.402;9.800;2022-09-11T17:33:05;20.80;63.40
12229;DHT22;6177;52.402;9.800;2022-09-11T17:35:49;20.70;64.00
12229;DHT22;6177;52.402;9.800;2022-09-11T17:38:34;20.50;64.50
12229;DHT22;6177;52.402;9.800;2022-09-11T17:41:19;20.40;64.90
12229;DHT22;6177;52.402;9.800;2022-09-11T17:44:04;20.30;65.40
12229;DHT22;6177;52.402;9.800;2022-09-11T17:46:48;20.20;65.80
12229;DHT22;6177;52.402;9.800;2022-09-11T17:49:40;20.10;66.30
12229;DHT22;6177;52.402;9.800;2022-09-11T17:52:24;20.00;66.70
12229;DHT22;6177;52.402;9.800;2022-09-11T17:55:09;19.90;67.10
12229;DHT22;6177;52.402;9.800;2022-09-11T17:57:54;19.80;67.50
12229;DHT22;6177;52.402;9.800;2022-09-11T18:00:39;19.70;67.80
12229;DHT22;6177;52.402;9.800;2022-09-11T18:03:23;19.60;68.20
12229;DHT22;6177;52.402;9.800;2022-09-11T18:06:32;19.50;68.60
12229;DHT22;6177;52.402;9.800;2022-09-11T18:09:20;19.50;68.60
12229;DHT22;6177;52.402;9.800;2022-09-11T18:12:05;19.30;69.30
12229;DHT22;6177;52.402;9.800;2022-09-11T18:14:49;19.20;69.70
12229;DHT22;6177;52.402;9.800;2022-09-11T18:17:36;19.20;70.10
12229;DHT22;6177;52.402;9.800;2022-09-11T18:20:21;19.10;70.40
12229;DHT22;6177;52.402;9.800;2022-09-11T18:23:07;19.10;70.70
12229;DHT22;6177;52.402;9.800;2022-09-11T18:25:51;19.10;71.00
12229;DHT22;6177;52.402;9.800;2022-09-11T18:28:36;19.00;71.30
12229;DHT22;6177;52.402;9.800;2022-09-11T18:31:21;18.90;71.60
12229;DHT22;6177;52.402;9.800;2022-09-11T18:34:08;18.90;72.00
12229;DHT22;6177;52.402;9.800;2022-09-11T18:36:53;18.80;72.40
12229;DHT22;6177;52.402;9.800;2022-09-11T18:39:38;18.70;72.70
12229;DHT22;6177;52.402;9.800;2022-09-11T18:42:23;18.70;73.10
12229;DHT22;6177;52.402;9.800;2022-09-11T18:45:08;18.70;73.40
12229;DHT22;6177;52.402;9.800;2022-09-11T18:47:53;18.70;73.80
12229;DHT22;6177;52.402;9.800;2022-09-11T18:50:39;18.60;74.20
12229;DHT22;6177;52.402;9.800;2022-09-11T18:53:23;18.50;74.20
12229;DHT22;6177;52.402;9.800;2022-09-11T18:56:10;18.40;74.40
12229;DHT22;6177;52.402;9.800;2022-09-11T18:58:54;18.40;74.80
12229;DHT22;6177;52.402;9.800;2022-09-11T19:01:39;18.30;75.10
12229;DHT22;6177;52.402;9.800;2022-09-11T19:04:24;18.20;75.30
12229;DHT22;6177;52.402;9.800;2022-09-11T19:07:12;18.20;75.50
12229;DHT22;6177;52.402;9.800;2022-09-11T19:09:57;18.10;75.70
12229;DHT22;6177;52.402;9.800;2022-09-11T19:12:45;18.10;76.00
12229;DHT22;6177;52.402;9.800;2022-09-11T19:15:30;18.00;76.30
12229;DHT22;6177;52.402;9.800;2022-09-11T19:18:14;17.90;76.70
12229;DHT22;6177;52.402;9.800;2022-09-11T19:21:07;17.90;77.00
12229;DHT22;6177;52.402;9.800;2022-09-11T19:23:58;17.80;77.00
12229;DHT22;6177;52.402;9.800;2022-09-11T19:26:43;17.70;77.30
12229;DHT22;6177;52.402;9.800;2022-09-11T19:29:28;17.80;77.60
12229;DHT22;6177;52.402;9.800;2022-09-11T19:32:13;17.70;77.80
12229;DHT22;6177;52.402;9.800;2022-09-11T19:34:57;17.70;78.00
12229;DHT22;6177;52.402;9.800;2022-09-11T19:40:07;17.50;77.60
12229;DHT22;6177;52.402;9.800;2022-09-11T19:42:52;17.50;78.40
12229;DHT22;6177;52.402;9.800;2022-09-11T19:45:37;17.40;78.50
12229;DHT22;6177;52.402;9.800;2022-09-11T19:48:22;17.40;78.70
12229;DHT22;6177;52.402;9.800;2022-09-11T19:51:18;17.30;79.10
12229;DHT22;6177;52.402;9.800;2022-09-11T19:54:04;17.20;79.40